Terminal Aerodrome Forecast
Issued by NWS

Home | Current Version | Previous Version | Text Only | Print | Product List | Glossary On
Versions: 1 2 3 4 5 6 7 8 9 10 11 12 13 14 15
557
FTPA31 PHFO 281139
TAFHLI
TAF
PHLI 281139Z 2812/0112 09016KT P6SM VCSH SCT018 BKN050 OVC150
      TEMPO 2812/2816 BKN018
     FM281800 10012KT 6SM -SHRA BR SCT015 BKN030 OVC050
     FM010000 09010KT 4SM SHRA BR VCTS SCT015CB BKN025 OVC040=

USA.gov is the U.S. government's official web portal to all federal, state and local government web resources and services.